sensor_id;sensor_type;location;lat;lon;timestamp;P1;durP1;ratioP1;P2;durP2;ratioP2
21589;SDS011;10957;50.968;6.828;2022-10-31T00:03:02;6.70;;;6.40;;
21589;SDS011;10957;50.968;6.828;2022-10-31T00:08:02;7.47;;;7.07;;
21589;SDS011;10957;50.968;6.828;2022-10-31T00:13:03;7.65;;;7.25;;
21589;SDS011;10957;50.968;6.828;2022-10-31T00:18:04;8.50;;;7.97;;
21589;SDS011;10957;50.968;6.828;2022-10-31T00:23:09;9.30;;;8.55;;
21589;SDS011;10957;50.968;6.828;2022-10-31T00:28:11;7.32;;;6.93;;
21589;SDS011;10957;50.968;6.828;2022-10-31T00:33:12;7.60;;;7.20;;
21589;SDS011;10957;50.968;6.828;2022-10-31T00:38:13;8.52;;;8.07;;
21589;SDS011;10957;50.968;6.828;2022-10-31T00:43:13;7.60;;;7.30;;
21589;SDS011;10957;50.968;6.828;2022-10-31T00:48:14;7.97;;;7.57;;
21589;SDS011;10957;50.968;6.828;2022-10-31T00:53:15;8.95;;;8.45;;
21589;SDS011;10957;50.968;6.828;2022-10-31T00:58:16;9.02;;;8.43;;
21589;SDS011;10957;50.968;6.828;2022-10-31T01:03:17;7.90;;;7.50;;
21589;SDS011;10957;50.968;6.828;2022-10-31T01:08:18;8.65;;;8.15;;
21589;SDS011;10957;50.968;6.828;2022-10-31T01:13:20;8.35;;;7.90;;
21589;SDS011;10957;50.968;6.828;2022-10-31T01:18:21;7.82;;;7.43;;
21589;SDS011;10957;50.968;6.828;2022-10-31T01:23:24;8.55;;;7.88;;
21589;SDS011;10957;50.968;6.828;2022-10-31T01:28:24;8.35;;;7.95;;
21589;SDS011;10957;50.968;6.828;2022-10-31T01:33:25;8.82;;;8.10;;
21589;SDS011;10957;50.968;6.828;2022-10-31T01:38:26;9.77;;;9.18;;
21589;SDS011;10957;50.968;6.828;2022-10-31T01:48:50;8.63;;;7.97;;
21589;SDS011;10957;50.968;6.828;2022-10-31T01:53:53;8.50;;;8.10;;
21589;SDS011;10957;50.968;6.828;2022-10-31T01:58:58;8.20;;;7.80;;
21589;SDS011;10957;50.968;6.828;2022-10-31T02:04:01;8.38;;;7.97;;
21589;SDS011;10957;50.968;6.828;2022-10-31T02:09:03;9.52;;;9.00;;
21589;SDS011;10957;50.968;6.828;2022-10-31T02:14:05;8.00;;;7.60;;
21589;SDS011;10957;50.968;6.828;2022-10-31T02:19:06;9.55;;;8.98;;
21589;SDS011;10957;50.968;6.828;2022-10-31T02:29:35;8.50;;;8.10;;
21589;SDS011;10957;50.968;6.828;2022-10-31T02:40:53;8.63;;;7.95;;
21589;SDS011;10957;50.968;6.828;2022-10-31T02:51:21;8.65;;;8.15;;
21589;SDS011;10957;50.968;6.828;2022-10-31T02:56:22;8.38;;;7.97;;
21589;SDS011;10957;50.968;6.828;2022-10-31T03:01:41;10.70;;;10.15;;
21589;SDS011;10957;50.968;6.828;2022-10-31T03:07:24;8.20;;;7.80;;
21589;SDS011;10957;50.968;6.828;2022-10-31T03:22:56;7.95;;;7.55;;
21589;SDS011;10957;50.968;6.828;2022-10-31T03:27:59;8.30;;;7.90;;
21589;SDS011;10957;50.968;6.828;2022-10-31T03:33:03;8.60;;;8.20;;
21589;SDS011;10957;50.968;6.828;2022-10-31T03:38:12;8.57;;;8.07;;
21589;SDS011;10957;50.968;6.828;2022-10-31T03:43:16;8.80;;;8.40;;
21589;SDS011;10957;50.968;6.828;2022-10-31T03:48:20;8.20;;;7.80;;
21589;SDS011;10957;50.968;6.828;2022-10-31T03:53:24;7.82;;;7.43;;
21589;SDS011;10957;50.968;6.828;2022-10-31T03:58:34;7.65;;;7.25;;
21589;SDS011;10957;50.968;6.828;2022-10-31T04:03:39;8.00;;;7.60;;
21589;SDS011;10957;50.968;6.828;2022-10-31T04:08:48;8.70;;;8.20;;
21589;SDS011;10957;50.968;6.828;2022-10-31T04:13:53;7.90;;;7.50;;
21589;SDS011;10957;50.968;6.828;2022-10-31T04:18:56;8.00;;;7.60;;
21589;SDS011;10957;50.968;6.828;2022-10-31T04:23:57;8.10;;;7.70;;
21589;SDS011;10957;50.968;6.828;2022-10-31T04:29:01;7.97;;;7.57;;
21589;SDS011;10957;50.968;6.828;2022-10-31T04:34:02;8.15;;;7.72;;
21589;SDS011;10957;50.968;6.828;2022-10-31T04:39:03;8.85;;;8.25;;
21589;SDS011;10957;50.968;6.828;2022-10-31T04:44:14;7.45;;;7.15;;
21589;SDS011;10957;50.968;6.828;2022-10-31T04:49:15;7.85;;;7.38;;
21589;SDS011;10957;50.968;6.828;2022-10-31T04:54:16;7.90;;;7.50;;
21589;SDS011;10957;50.968;6.828;2022-10-31T04:59:35;8.07;;;7.68;;
21589;SDS011;10957;50.968;6.828;2022-10-31T05:04:37;7.40;;;7.10;;
21589;SDS011;10957;50.968;6.828;2022-10-31T05:09:38;7.80;;;7.40;;
21589;SDS011;10957;50.968;6.828;2022-10-31T05:14:39;8.63;;;8.13;;
21589;SDS011;10957;50.968;6.828;2022-10-31T05:20:12;7.25;;;6.95;;
21589;SDS011;10957;50.968;6.828;2022-10-31T05:25:32;7.50;;;7.10;;
21589;SDS011;10957;50.968;6.828;2022-10-31T05:30:36;10.75;;;9.75;;
21589;SDS011;10957;50.968;6.828;2022-10-31T05:35:40;7.20;;;6.80;;
21589;SDS011;10957;50.968;6.828;2022-10-31T05:41:00;7.80;;;7.40;;
21589;SDS011;10957;50.968;6.828;2022-10-31T05:46:02;8.23;;;7.68;;
21589;SDS011;10957;50.968;6.828;2022-10-31T05:51:21;7.93;;;7.53;;
21589;SDS011;10957;50.968;6.828;2022-10-31T05:56:22;8.10;;;7.70;;
21589;SDS011;10957;50.968;6.828;2022-10-31T06:01:23;9.80;;;9.27;;
21589;SDS011;10957;50.968;6.828;2022-10-31T06:06:24;9.18;;;8.73;;
21589;SDS011;10957;50.968;6.828;2022-10-31T06:11:25;8.00;;;7.60;;
21589;SDS011;10957;50.968;6.828;2022-10-31T06:16:37;8.50;;;8.10;;
21589;SDS011;10957;50.968;6.828;2022-10-31T06:22:07;8.27;;;7.88;;
21589;SDS011;10957;50.968;6.828;2022-10-31T06:27:08;8.00;;;7.60;;
21589;SDS011;10957;50.968;6.828;2022-10-31T06:32:09;8.30;;;7.80;;
21589;SDS011;10957;50.968;6.828;2022-10-31T06:37:15;8.32;;;7.72;;
21589;SDS011;10957;50.968;6.828;2022-10-31T06:42:19;8.00;;;7.60;;
21589;SDS011;10957;50.968;6.828;2022-10-31T06:47:20;9.07;;;8.43;;
21589;SDS011;10957;50.968;6.828;2022-10-31T06:52:52;8.00;;;7.60;;
21589;SDS011;10957;50.968;6.828;2022-10-31T06:57:58;7.95;;;7.47;;
21589;SDS011;10957;50.968;6.828;2022-10-31T07:03:01;8.30;;;7.90;;
21589;SDS011;10957;50.968;6.828;2022-10-31T07:08:09;8.48;;;8.05;;
21589;SDS011;10957;50.968;6.828;2022-10-31T07:13:12;8.52;;;8.02;;
21589;SDS011;10957;50.968;6.828;2022-10-31T07:18:14;8.98;;;8.48;;
21589;SDS011;10957;50.968;6.828;2022-10-31T07:23:16;8.90;;;8.40;;
21589;SDS011;10957;50.968;6.828;2022-10-31T07:28:23;8.10;;;7.70;;
21589;SDS011;10957;50.968;6.828;2022-10-31T07:33:26;7.97;;;7.57;;
21589;SDS011;10957;50.968;6.828;2022-10-31T07:38:46;8.20;;;7.70;;
21589;SDS011;10957;50.968;6.828;2022-10-31T07:43:47;8.82;;;8.15;;
21589;SDS011;10957;50.968;6.828;2022-10-31T07:48:51;8.88;;;8.38;;
21589;SDS011;10957;50.968;6.828;2022-10-31T07:54:10;7.35;;;7.05;;
21589;SDS011;10957;50.968;6.828;2022-10-31T07:59:11;7.32;;;7.03;;
21589;SDS011;10957;50.968;6.828;2022-10-31T08:04:14;9.15;;;8.55;;
21589;SDS011;10957;50.968;6.828;2022-10-31T08:09:46;7.95;;;7.55;;
21589;SDS011;10957;50.968;6.828;2022-10-31T08:14:59;8.23;;;7.72;;
21589;SDS011;10957;50.968;6.828;2022-10-31T08:20:00;7.32;;;7.03;;
21589;SDS011;10957;50.968;6.828;2022-10-31T08:25:05;7.82;;;7.43;;
21589;SDS011;10957;50.968;6.828;2022-10-31T08:30:07;8.10;;;7.70;;
21589;SDS011;10957;50.968;6.828;2022-10-31T08:35:11;7.88;;;7.47;;
21589;SDS011;10957;50.968;6.828;2022-10-31T08:40:48;8.05;;;7.60;;
21589;SDS011;10957;50.968;6.828;2022-10-31T08:45:49;6.85;;;6.55;;
21589;SDS011;10957;50.968;6.828;2022-10-31T08:50:58;7.20;;;6.88;;
21589;SDS011;10957;50.968;6.828;2022-10-31T08:56:00;7.13;;;6.82;;
21589;SDS011;10957;50.968;6.828;2022-10-31T09:01:01;9.15;;;8.45;;
21589;SDS011;10957;50.968;6.828;2022-10-31T09:06:02;8.13;;;7.63;;
21589;SDS011;10957;50.968;6.828;2022-10-31T09:11:03;6.90;;;6.60;;
21589;SDS011;10957;50.968;6.828;2022-10-31T09:16:25;7.10;;;6.70;;
21589;SDS011;10957;50.968;6.828;2022-10-31T09:21:25;6.50;;;6.20;;
21589;SDS011;10957;50.968;6.828;2022-10-31T09:26:27;7.15;;;6.65;;
21589;SDS011;10957;50.968;6.828;2022-10-31T09:31:33;6.00;;;5.70;;
21589;SDS011;10957;50.968;6.828;2022-10-31T09:36:41;6.40;;;6.10;;
21589;SDS011;10957;50.968;6.828;2022-10-31T09:47:37;16.75;;;6.43;;
21589;SDS011;10957;50.968;6.828;2022-10-31T09:58:45;7.15;;;6.75;;
21589;SDS011;10957;50.968;6.828;2022-10-31T10:03:49;6.65;;;6.35;;
21589;SDS011;10957;50.968;6.828;2022-10-31T10:09:12;7.65;;;7.15;;
21589;SDS011;10957;50.968;6.828;2022-10-31T10:40:54;6.68;;;6.38;;
21589;SDS011;10957;50.968;6.828;2022-10-31T10:45:59;6.40;;;6.10;;
21589;SDS011;10957;50.968;6.828;2022-10-31T10:51:23;6.68;;;6.38;;
21589;SDS011;10957;50.968;6.828;2022-10-31T10:56:38;6.13;;;5.82;;
21589;SDS011;10957;50.968;6.828;2022-10-31T11:01:50;7.30;;;6.90;;
21589;SDS011;10957;50.968;6.828;2022-10-31T11:06:59;6.45;;;6.15;;
21589;SDS011;10957;50.968;6.828;2022-10-31T11:12:08;6.30;;;6.00;;
21589;SDS011;10957;50.968;6.828;2022-10-31T11:17:17;7.03;;;6.63;;
21589;SDS011;10957;50.968;6.828;2022-10-31T11:22:23;6.20;;;5.90;;
21589;SDS011;10957;50.968;6.828;2022-10-31T11:27:24;7.25;;;6.80;;
21589;SDS011;10957;50.968;6.828;2022-10-31T11:32:26;5.90;;;5.60;;
21589;SDS011;10957;50.968;6.828;2022-10-31T11:37:32;5.80;;;5.53;;
21589;SDS011;10957;50.968;6.828;2022-10-31T11:42:37;6.38;;;5.97;;
21589;SDS011;10957;50.968;6.828;2022-10-31T11:47:41;6.13;;;5.82;;
21589;SDS011;10957;50.968;6.828;2022-10-31T11:52:48;8.23;;;7.43;;
21589;SDS011;10957;50.968;6.828;2022-10-31T11:57:51;6.88;;;6.47;;
21589;SDS011;10957;50.968;6.828;2022-10-31T12:08:22;6.38;;;6.07;;
21589;SDS011;10957;50.968;6.828;2022-10-31T12:13:34;7.13;;;6.68;;
21589;SDS011;10957;50.968;6.828;2022-10-31T12:18:52;6.55;;;6.25;;
21589;SDS011;10957;50.968;6.828;2022-10-31T12:50:45;6.50;;;6.20;;
21589;SDS011;10957;50.968;6.828;2022-10-31T13:01:16;7.28;;;6.88;;
21589;SDS011;10957;50.968;6.828;2022-10-31T13:06:21;27.02;;;6.25;;
21589;SDS011;10957;50.968;6.828;2022-10-31T13:11:30;6.00;;;5.70;;
21589;SDS011;10957;50.968;6.828;2022-10-31T13:16:45;6.57;;;6.28;;
21589;SDS011;10957;50.968;6.828;2022-10-31T13:21:58;6.55;;;6.25;;
21589;SDS011;10957;50.968;6.828;2022-10-31T13:27:20;6.50;;;6.20;;
21589;SDS011;10957;50.968;6.828;2022-10-31T13:32:23;5.63;;;5.43;;
21589;SDS011;10957;50.968;6.828;2022-10-31T13:37:41;6.25;;;5.95;;
21589;SDS011;10957;50.968;6.828;2022-10-31T13:43:02;6.65;;;6.25;;
21589;SDS011;10957;50.968;6.828;2022-10-31T13:53:19;7.25;;;5.75;;
21589;SDS011;10957;50.968;6.828;2022-10-31T13:58:26;5.97;;;5.68;;
21589;SDS011;10957;50.968;6.828;2022-10-31T14:03:29;6.45;;;6.05;;
21589;SDS011;10957;50.968;6.828;2022-10-31T14:08:33;5.82;;;5.53;;
21589;SDS011;10957;50.968;6.828;2022-10-31T14:13:36;5.95;;;5.65;;
21589;SDS011;10957;50.968;6.828;2022-10-31T14:18:43;9.10;;;5.53;;
21589;SDS011;10957;50.968;6.828;2022-10-31T14:23:48;5.50;;;5.20;;
21589;SDS011;10957;50.968;6.828;2022-10-31T14:28:49;6.75;;;6.15;;
21589;SDS011;10957;50.968;6.828;2022-10-31T14:33:51;6.60;;;6.25;;
21589;SDS011;10957;50.968;6.828;2022-10-31T14:38:54;5.50;;;5.30;;
21589;SDS011;10957;50.968;6.828;2022-10-31T14:44:15;6.15;;;5.75;;
21589;SDS011;10957;50.968;6.828;2022-10-31T14:54:37;5.90;;;5.60;;
21589;SDS011;10957;50.968;6.828;2022-10-31T14:59:41;6.05;;;5.65;;
21589;SDS011;10957;50.968;6.828;2022-10-31T15:04:48;6.35;;;6.05;;
21589;SDS011;10957;50.968;6.828;2022-10-31T15:09:59;5.70;;;5.50;;
21589;SDS011;10957;50.968;6.828;2022-10-31T15:15:23;5.30;;;5.10;;
21589;SDS011;10957;50.968;6.828;2022-10-31T15:20:26;5.97;;;5.68;;
21589;SDS011;10957;50.968;6.828;2022-10-31T15:25:32;5.20;;;5.00;;
21589;SDS011;10957;50.968;6.828;2022-10-31T15:30:35;7.00;;;6.60;;
21589;SDS011;10957;50.968;6.828;2022-10-31T15:35:36;4.85;;;4.65;;
21589;SDS011;10957;50.968;6.828;2022-10-31T15:40:37;4.90;;;4.70;;
21589;SDS011;10957;50.968;6.828;2022-10-31T15:45:37;5.22;;;5.03;;
21589;SDS011;10957;50.968;6.828;2022-10-31T15:55:49;4.97;;;4.78;;
21589;SDS011;10957;50.968;6.828;2022-10-31T16:00:57;5.72;;;5.47;;
21589;SDS011;10957;50.968;6.828;2022-10-31T16:06:04;6.38;;;5.90;;
21589;SDS011;10957;50.968;6.828;2022-10-31T16:16:13;6.78;;;6.25;;
21589;SDS011;10957;50.968;6.828;2022-10-31T16:21:15;5.75;;;5.45;;
21589;SDS011;10957;50.968;6.828;2022-10-31T16:26:23;6.38;;;5.93;;
21589;SDS011;10957;50.968;6.828;2022-10-31T16:31:25;7.90;;;7.20;;
21589;SDS011;10957;50.968;6.828;2022-10-31T16:36:35;6.72;;;6.22;;
21589;SDS011;10957;50.968;6.828;2022-10-31T16:41:39;7.45;;;6.50;;
21589;SDS011;10957;50.968;6.828;2022-10-31T16:46:41;5.70;;;5.50;;
21589;SDS011;10957;50.968;6.828;2022-10-31T16:51:42;5.40;;;5.20;;
21589;SDS011;10957;50.968;6.828;2022-10-31T16:56:43;5.95;;;5.65;;
21589;SDS011;10957;50.968;6.828;2022-10-31T17:01:44;5.75;;;5.53;;
21589;SDS011;10957;50.968;6.828;2022-10-31T17:06:48;6.00;;;5.70;;
21589;SDS011;10957;50.968;6.828;2022-10-31T17:11:49;5.90;;;5.60;;
21589;SDS011;10957;50.968;6.828;2022-10-31T17:16:52;12.07;;;7.25;;
21589;SDS011;10957;50.968;6.828;2022-10-31T17:21:53;5.30;;;5.10;;
21589;SDS011;10957;50.968;6.828;2022-10-31T17:26:54;5.60;;;5.40;;
21589;SDS011;10957;50.968;6.828;2022-10-31T17:31:54;6.13;;;5.82;;
21589;SDS011;10957;50.968;6.828;2022-10-31T17:36:55;5.38;;;5.18;;
21589;SDS011;10957;50.968;6.828;2022-10-31T17:41:57;5.40;;;5.20;;
21589;SDS011;10957;50.968;6.828;2022-10-31T17:46:57;5.78;;;5.43;;
21589;SDS011;10957;50.968;6.828;2022-10-31T17:51:58;7.25;;;6.75;;
21589;SDS011;10957;50.968;6.828;2022-10-31T17:56:59;6.20;;;5.88;;
21589;SDS011;10957;50.968;6.828;2022-10-31T18:01:59;6.40;;;5.93;;
21589;SDS011;10957;50.968;6.828;2022-10-31T18:07:01;5.82;;;5.53;;
21589;SDS011;10957;50.968;6.828;2022-10-31T18:12:01;6.15;;;5.75;;
21589;SDS011;10957;50.968;6.828;2022-10-31T18:17:02;5.40;;;5.15;;
21589;SDS011;10957;50.968;6.828;2022-10-31T18:22:03;5.47;;;5.22;;
21589;SDS011;10957;50.968;6.828;2022-10-31T18:27:04;5.75;;;5.43;;
21589;SDS011;10957;50.968;6.828;2022-10-31T18:32:05;5.90;;;5.60;;
21589;SDS011;10957;50.968;6.828;2022-10-31T18:37:06;5.57;;;5.07;;
21589;SDS011;10957;50.968;6.828;2022-10-31T18:42:07;21.15;;;6.60;;
21589;SDS011;10957;50.968;6.828;2022-10-31T18:47:08;5.00;;;4.80;;
21589;SDS011;10957;50.968;6.828;2022-10-31T18:52:08;4.90;;;4.70;;
21589;SDS011;10957;50.968;6.828;2022-10-31T18:57:09;5.80;;;5.50;;
21589;SDS011;10957;50.968;6.828;2022-10-31T19:02:11;4.88;;;4.63;;
21589;SDS011;10957;50.968;6.828;2022-10-31T19:07:14;4.60;;;4.40;;
21589;SDS011;10957;50.968;6.828;2022-10-31T19:12:14;5.20;;;4.97;;
21589;SDS011;10957;50.968;6.828;2022-10-31T19:17:15;5.00;;;4.80;;
21589;SDS011;10957;50.968;6.828;2022-10-31T19:22:16;6.35;;;5.80;;
21589;SDS011;10957;50.968;6.828;2022-10-31T19:27:16;4.50;;;4.30;;
21589;SDS011;10957;50.968;6.828;2022-10-31T19:32:17;5.47;;;5.18;;
21589;SDS011;10957;50.968;6.828;2022-10-31T19:37:18;5.40;;;5.20;;
21589;SDS011;10957;50.968;6.828;2022-10-31T19:42:20;5.18;;;4.90;;
21589;SDS011;10957;50.968;6.828;2022-10-31T19:47:20;5.50;;;5.25;;
21589;SDS011;10957;50.968;6.828;2022-10-31T19:52:21;5.22;;;4.95;;
21589;SDS011;10957;50.968;6.828;2022-10-31T19:57:22;5.00;;;4.80;;
21589;SDS011;10957;50.968;6.828;2022-10-31T20:02:23;5.93;;;5.63;;
21589;SDS011;10957;50.968;6.828;2022-10-31T20:07:24;4.65;;;4.43;;
21589;SDS011;10957;50.968;6.828;2022-10-31T20:12:25;5.90;;;5.40;;
21589;SDS011;10957;50.968;6.828;2022-10-31T20:17:25;4.88;;;4.68;;
21589;SDS011;10957;50.968;6.828;2022-10-31T20:22:26;4.38;;;4.18;;
21589;SDS011;10957;50.968;6.828;2022-10-31T20:27:27;6.13;;;5.63;;
21589;SDS011;10957;50.968;6.828;2022-10-31T20:32:28;5.65;;;5.35;;
21589;SDS011;10957;50.968;6.828;2022-10-31T20:37:29;4.65;;;4.45;;
21589;SDS011;10957;50.968;6.828;2022-10-31T20:42:29;5.10;;;4.80;;
21589;SDS011;10957;50.968;6.828;2022-10-31T20:47:30;5.90;;;5.60;;
21589;SDS011;10957;50.968;6.828;2022-10-31T20:52:31;5.35;;;5.07;;
21589;SDS011;10957;50.968;6.828;2022-10-31T20:57:32;5.68;;;5.38;;
21589;SDS011;10957;50.968;6.828;2022-10-31T21:02:33;8.57;;;4.63;;
21589;SDS011;10957;50.968;6.828;2022-10-31T21:07:34;5.20;;;4.90;;
21589;SDS011;10957;50.968;6.828;2022-10-31T21:12:35;5.22;;;4.95;;
21589;SDS011;10957;50.968;6.828;2022-10-31T21:17:39;5.53;;;5.10;;
21589;SDS011;10957;50.968;6.828;2022-10-31T21:22:40;6.50;;;6.05;;
21589;SDS011;10957;50.968;6.828;2022-10-31T21:27:41;5.15;;;4.95;;
21589;SDS011;10957;50.968;6.828;2022-10-31T21:32:41;4.80;;;4.60;;
21589;SDS011;10957;50.968;6.828;2022-10-31T21:37:42;6.75;;;6.10;;
21589;SDS011;10957;50.968;6.828;2022-10-31T21:42:43;5.32;;;5.03;;
21589;SDS011;10957;50.968;6.828;2022-10-31T21:47:44;4.40;;;4.20;;
21589;SDS011;10957;50.968;6.828;2022-10-31T21:52:44;4.85;;;4.65;;
21589;SDS011;10957;50.968;6.828;2022-10-31T21:57:45;4.78;;;4.57;;
21589;SDS011;10957;50.968;6.828;2022-10-31T22:02:45;5.05;;;4.85;;
21589;SDS011;10957;50.968;6.828;2022-10-31T22:07:46;5.75;;;5.30;;
21589;SDS011;10957;50.968;6.828;2022-10-31T22:12:47;4.72;;;4.53;;
21589;SDS011;10957;50.968;6.828;2022-10-31T22:17:48;4.60;;;4.40;;
21589;SDS011;10957;50.968;6.828;2022-10-31T22:22:49;4.72;;;4.53;;
21589;SDS011;10957;50.968;6.828;2022-10-31T22:27:50;4.38;;;4.18;;
21589;SDS011;10957;50.968;6.828;2022-10-31T22:32:51;4.35;;;4.15;;
21589;SDS011;10957;50.968;6.828;2022-10-31T22:37:52;4.95;;;4.75;;
21589;SDS011;10957;50.968;6.828;2022-10-31T22:42:53;4.90;;;4.68;;
21589;SDS011;10957;50.968;6.828;2022-10-31T22:47:55;4.90;;;4.70;;
21589;SDS011;10957;50.968;6.828;2022-10-31T22:52:56;4.40;;;4.20;;
21589;SDS011;10957;50.968;6.828;2022-10-31T22:57:56;7.32;;;5.20;;
21589;SDS011;10957;50.968;6.828;2022-10-31T23:02:57;5.07;;;4.80;;
21589;SDS011;10957;50.968;6.828;2022-10-31T23:07:58;5.18;;;4.88;;
21589;SDS011;10957;50.968;6.828;2022-10-31T23:12:59;4.82;;;4.47;;
21589;SDS011;10957;50.968;6.828;2022-10-31T23:18:18;4.80;;;4.60;;
21589;SDS011;10957;50.968;6.828;2022-10-31T23:23:19;5.07;;;4.82;;
21589;SDS011;10957;50.968;6.828;2022-10-31T23:28:20;5.18;;;4.88;;
21589;SDS011;10957;50.968;6.828;2022-10-31T23:33:21;5.03;;;4.72;;
21589;SDS011;10957;50.968;6.828;2022-10-31T23:38:22;5.38;;;5.07;;
21589;SDS011;10957;50.968;6.828;2022-10-31T23:43:23;5.38;;;5.07;;
21589;SDS011;10957;50.968;6.828;2022-10-31T23:48:23;4.60;;;4.40;;
21589;SDS011;10957;50.968;6.828;2022-10-31T23:53:24;4.47;;;4.28;;
21589;SDS011;10957;50.968;6.828;2022-10-31T23:58:25;4.50;;;4.30;;
